Mount Pleasant, TX (75455)

8:48 PM CDT en Octubre 31, 2014 (GMT -0500)
Union Hill Road at CR 4640 | Change Station
CLOSE
Current Station
Estación meteorológica personal
Location: Mount Pleasant, TX
Altura: 425 ft
Estaciones meteorológicas cercanas
Aviso en curso: Freeze Warning

Alt 425 ft 33.09 °N, 94.90 °W | Updated 4 seconds ago

Despejado
Despejado
51.2 ° F
Sensación térmica 51.2 ° F
N
1.0
Viento Variable Viento desde NNO
Gusts 4.0 mph

Hoy
Alta -- | Baja -- ° F
--% Posibilidad de precipitaciones
Ayer
Alta -- | Baja -- ° F
Precip. -- pul
7:37 AM 6:29 PM
Cuarto creciente, 61% visible
Presión 30.33 pul
Visibilidad 10.0 Millas
Nubes Despejado
Punto de rocío 40 ° F
Humedad 64%
Precipitaciones 0.00 pul
Espesor de la nieve No disponible.
UV 0 de una escala de 12
Polen 2.70 de una escala de 12
Calidad del aire No disponible.
Flu Activity No disponible.
METAR KOSA 010135Z AUTO 35007KT 10SM CLR 11/04 A3033 RMK AO1 T01140041

More Conditions Fewer Conditions

Presión 30.33 pul
Visibilidad 10.0 Millas
Nubes Despejado
Punto de rocío 40 ° F
Humedad 64%
Precipitaciones 0.00 pul
Espesor de la nieve No disponible.
UV 0 de una escala de 12
Polen 2.70 de una escala de 12
Calidad del aire No disponible.
Flu Activity No disponible.
METAR KOSA 010135Z AUTO 35007KT 10SM CLR 11/04 A3033 RMK AO1 T01140041

More Conditions Fewer Conditions

10-Day Weather Forecast

Almanac

Astronomía

Oct. 31, 2014 Salida Puesta
Hora real
Crepúsculo civil
Crepúsculo náutico
Crepúsculo astronómico
Luna
Horas de luz
Horas de luz
Tomorrow will be .
, % of the Moon is Illuminated

Extremos de hoy

Máximos del estado Bajos del estado

Community

WunderPhotos

Upload Photos

1,766,810 ¡fotos cargadas!

WunderBlogs® & News

Nearby

Calidad del aire

  Calidad del aire Índice AQ Contaminante
Not available.

Grosos de nieve

Estación Profundido Altura

Actividad de terremotos

Ciudad Distance Mag. Tiempo y dato
Magnitud mínima muestra es 2,5.

Temperaturas de aguas costeras

Lugar Temperatura

Estaciones meteorológicas cercanas